Time;durP1;ratioP1;P1;durP2;ratioP2;P2;SDS_P1;SDS_P2;PMS_P1;PMS_P2;Temp;Humidity;BMP_temperature;BMP_pressure;BME280_temperature;BME280_humidity;BME280_pressure;Samples;Min_cycle;Max_cycle;Signal;HPM_P1;HPM_P2
2021/12/30 00:01:56;;;;;;;81.55;20.55;;;7.10;99.90;;;;;;4945426;29;20546;-88
2021/12/30 00:04:22;;;;;;;95.00;22.45;;;7.10;99.90;;;;;;4960470;28;20031;-88
2021/12/30 00:06:49;;;;;;;91.72;21.58;;;7.10;99.90;;;;;;4964174;28;20110;-88
2021/12/30 00:09:15;;;;;;;88.75;22.42;;;7.10;99.90;;;;;;4944320;29;20041;-88
2021/12/30 00:11:41;;;;;;;105.88;24.92;;;7.20;99.90;;;;;;4944339;28;20032;-87
2021/12/30 00:14:07;;;;;;;117.90;23.30;;;7.20;99.90;;;;;;4946332;29;20032;-87
2021/12/30 00:16:33;;;;;;;102.63;24.98;;;7.10;99.90;;;;;;4962042;28;20031;-88
2021/12/30 00:18:58;;;;;;;124.88;25.98;;;7.20;99.90;;;;;;4952776;28;20492;-88
2021/12/30 00:21:24;;;;;;;123.28;27.33;;;7.20;99.90;;;;;;4949553;28;20030;-87
2021/12/30 00:23:51;;;;;;;118.47;28.38;;;7.30;99.90;;;;;;4945497;28;20525;-88
2021/12/30 00:26:17;;;;;;;126.30;29.83;;;7.40;99.90;;;;;;4964423;28;20032;-88
2021/12/30 00:28:43;;;;;;;157.90;28.98;;;7.40;99.90;;;;;;4962195;28;20061;-88
2021/12/30 00:31:08;;;;;;;128.55;30.52;;;7.40;99.90;;;;;;4949319;28;20110;-87
2021/12/30 00:33:34;;;;;;;138.93;31.80;;;7.50;99.90;;;;;;4943045;28;20390;-88
2021/12/30 00:36:08;;;;;;;136.18;32.50;;;7.50;99.90;;;;;;4955975;28;20035;-88
2021/12/30 00:38:35;;;;;;;138.15;33.42;;;7.50;99.90;;;;;;4952528;28;20055;-88
2021/12/30 00:41:01;;;;;;;126.00;32.35;;;7.60;99.90;;;;;;4952324;29;20031;-88
2021/12/30 00:43:27;;;;;;;133.45;31.77;;;7.60;99.90;;;;;;4947712;28;20027;-87
2021/12/30 00:45:52;;;;;;;124.90;30.80;;;7.70;99.90;;;;;;4966139;28;20034;-88
2021/12/30 00:48:18;;;;;;;137.80;31.55;;;7.70;99.90;;;;;;4966405;28;20032;-88
2021/12/30 00:50:46;;;;;;;154.23;33.53;;;7.70;99.90;;;;;;4946159;29;20031;-88
2021/12/30 00:53:12;;;;;;;132.65;32.88;;;7.70;99.90;;;;;;4953949;28;20035;-88
2021/12/30 00:55:39;;;;;;;139.23;33.88;;;7.80;99.90;;;;;;4953655;29;20019;-88
2021/12/30 00:58:05;;;;;;;125.60;31.50;;;7.80;99.90;;;;;;4953935;28;20391;-88
2021/12/30 01:00:32;;;;;;;125.47;33.08;;;7.80;99.90;;;;;;4964066;28;20085;-87
2021/12/30 01:02:58;;;;;;;142.90;33.83;;;7.80;99.90;;;;;;4950652;28;20479;-88
2021/12/30 01:05:24;;;;;;;133.80;33.47;;;7.90;99.90;;;;;;4945696;29;20031;-88
2021/12/30 01:07:50;;;;;;;127.50;32.95;;;7.90;99.90;;;;;;4968882;28;20125;-88
2021/12/30 01:10:20;;;;;;;139.70;34.95;;;8.00;99.90;;;;;;4967896;28;20122;-88
2021/12/30 01:12:46;;;;;;;112.15;30.80;;;8.00;99.90;;;;;;4952282;29;20031;-88
2021/12/30 01:15:13;;;;;;;121.50;33.38;;;8.00;99.90;;;;;;4952400;28;20106;-88
2021/12/30 01:17:59;;;;;;;125.28;33.70;;;8.00;99.90;;;;;;4951950;28;20078;-88
2021/12/30 01:20:24;;;;;;;97.78;31.60;;;8.10;99.90;;;;;;4947115;29;20019;-88
2021/12/30 01:22:52;;;;;;;117.32;31.23;;;8.10;99.90;;;;;;4962299;28;20050;-88
2021/12/30 01:25:19;;;;;;;115.95;31.15;;;8.10;99.90;;;;;;4950248;29;20024;-88
2021/12/30 01:27:45;;;;;;;97.53;31.63;;;8.10;99.90;;;;;;4968830;28;20031;-88
2021/12/30 01:30:14;;;;;;;104.75;31.63;;;8.10;99.90;;;;;;4962072;28;20031;-88
2021/12/30 01:32:43;;;;;;;110.25;30.40;;;8.10;99.90;;;;;;4965571;28;20483;-88
2021/12/30 01:35:12;;;;;;;103.18;29.52;;;8.10;99.90;;;;;;4941790;28;20099;-88
2021/12/30 01:37:38;;;;;;;101.20;30.15;;;8.10;99.90;;;;;;4966140;28;20059;-88
2021/12/30 01:40:09;;;;;;;91.93;29.50;;;8.20;99.90;;;;;;4966975;28;20027;-88
2021/12/30 01:42:35;;;;;;;90.38;27.33;;;8.20;99.90;;;;;;4968420;28;20027;-88
2021/12/30 01:45:03;;;;;;;99.80;27.58;;;8.20;99.90;;;;;;4954551;28;20034;-88
2021/12/30 01:47:28;;;;;;;96.00;28.85;;;8.20;99.90;;;;;;4948771;28;20027;-88
2021/12/30 01:49:54;;;;;;;92.85;28.83;;;8.20;99.90;;;;;;4962395;28;20027;-88
2021/12/30 01:52:20;;;;;;;100.25;27.20;;;8.20;99.90;;;;;;4947644;29;20032;-88
2021/12/30 01:54:46;;;;;;;87.32;26.98;;;8.30;99.90;;;;;;4944451;28;20070;-88
2021/12/30 01:57:11;;;;;;;90.30;26.38;;;8.20;99.90;;;;;;4953302;28;20027;-88
2021/12/30 01:59:37;;;;;;;84.95;26.30;;;8.30;99.80;;;;;;4961354;28;20033;-88
2021/12/30 02:02:05;;;;;;;70.18;22.58;;;8.20;99.90;;;;;;4948399;29;20034;-88
2021/12/30 02:04:31;;;;;;;75.25;25.00;;;8.20;99.80;;;;;;4963359;28;20327;-88
2021/12/30 02:06:58;;;;;;;81.60;24.35;;;8.20;99.80;;;;;;4965873;28;20147;-88
2021/12/30 02:09:25;;;;;;;73.32;24.08;;;8.20;99.80;;;;;;4964746;28;20114;-88
2021/12/30 02:11:53;;;;;;;68.65;22.38;;;8.20;99.80;;;;;;4952970;28;20039;-88
2021/12/30 02:14:18;;;;;;;78.93;24.05;;;8.20;99.80;;;;;;4968331;28;20085;-88
2021/12/30 02:16:44;;;;;;;68.20;22.08;;;8.20;99.80;;;;;;4958642;28;20028;-87
2021/12/30 02:19:10;;;;;;;63.78;20.63;;;8.20;99.80;;;;;;4947659;29;20035;-87
2021/12/30 02:21:36;;;;;;;65.57;21.50;;;8.20;99.80;;;;;;4965765;28;20030;-87
2021/12/30 02:24:02;;;;;;;67.63;21.17;;;8.20;99.80;;;;;;4963412;28;20024;-88
2021/12/30 02:26:28;;;;;;;56.60;20.00;;;8.20;99.80;;;;;;4948399;29;20070;-88
2021/12/30 02:28:54;;;;;;;57.45;19.42;;;8.20;99.70;;;;;;4950493;28;20071;-87
2021/12/30 02:31:23;;;;;;;55.83;17.55;;;8.20;99.70;;;;;;4966022;28;20027;-87
2021/12/30 02:33:49;;;;;;;64.65;18.40;;;8.20;99.70;;;;;;4949265;29;20506;-88
2021/12/30 02:36:17;;;;;;;53.95;16.25;;;8.20;99.70;;;;;;4951699;29;20110;-88
2021/12/30 02:38:45;;;;;;;61.05;18.27;;;8.30;99.70;;;;;;4966415;28;20035;-88
2021/12/30 02:41:18;;;;;;;55.80;17.65;;;8.30;99.70;;;;;;4958697;28;20075;-88
2021/12/30 02:43:47;;;;;;;53.20;18.48;;;8.30;99.70;;;;;;4947175;28;20082;-88
2021/12/30 02:46:13;;;;;;;62.72;18.20;;;8.20;99.70;;;;;;4966218;28;20031;-88
2021/12/30 02:48:41;;;;;;;53.97;15.88;;;8.30;99.70;;;;;;4964671;28;20106;-88
2021/12/30 02:51:10;;;;;;;57.72;16.85;;;8.20;99.70;;;;;;4946638;28;20032;-88
2021/12/30 02:53:36;;;;;;;53.95;17.00;;;8.20;99.70;;;;;;4951726;29;20027;-88
2021/12/30 02:56:04;;;;;;;47.05;16.02;;;8.20;99.60;;;;;;4950434;28;20027;-88
2021/12/30 02:58:30;;;;;;;50.33;17.02;;;8.10;99.60;;;;;;4949429;28;20376;-88
2021/12/30 03:01:09;;;;;;;60.30;17.25;;;8.10;99.60;;;;;;4951871;29;20031;-87
2021/12/30 03:03:36;;;;;;;56.15;16.38;;;8.10;99.60;;;;;;4962482;28;20086;-88
2021/12/30 03:06:04;;;;;;;51.63;16.55;;;8.10;99.60;;;;;;4951732;28;20418;-88
2021/12/30 03:08:30;;;;;;;59.42;14.48;;;8.10;99.60;;;;;;4952432;28;20081;-88
2021/12/30 03:10:56;;;;;;;48.78;14.52;;;8.20;99.60;;;;;;4964899;28;20395;-88
2021/12/30 03:13:30;;;;;;;56.88;15.55;;;8.10;99.60;;;;;;4965606;28;20450;-88
2021/12/30 03:16:05;;;;;;;60.22;15.38;;;8.10;99.60;;;;;;4948588;28;20506;-88
2021/12/30 03:18:32;;;;;;;54.20;14.77;;;8.10;99.60;;;;;;4964324;28;20031;-88
2021/12/30 03:20:58;;;;;;;52.63;13.40;;;8.10;99.60;;;;;;4949596;28;20394;-87
2021/12/30 03:23:24;;;;;;;56.95;13.93;;;8.00;99.60;;;;;;4964505;28;20047;-88
2021/12/30 03:25:50;;;;;;;48.90;13.13;;;7.90;99.50;;;;;;4963917;28;20074;-88
2021/12/30 03:28:15;;;;;;;55.83;13.93;;;8.00;99.60;;;;;;4965837;28;20106;-88
2021/12/30 03:30:41;;;;;;;50.13;14.15;;;7.90;99.50;;;;;;4963163;28;20024;-88
2021/12/30 03:33:07;;;;;;;49.25;14.18;;;8.00;99.60;;;;;;4961838;28;20518;-88
2021/12/30 03:35:33;;;;;;;54.15;13.98;;;8.00;99.50;;;;;;4950334;28;20031;-88
2021/12/30 03:37:58;;;;;;;52.67;14.70;;;7.80;99.50;;;;;;4965915;28;20303;-88
2021/12/30 03:40:24;;;;;;;56.42;13.63;;;7.70;99.50;;;;;;4964888;28;20195;-87
2021/12/30 03:42:50;;;;;;;53.33;14.60;;;7.70;99.50;;;;;;4966651;28;20062;-88
2021/12/30 03:45:16;;;;;;;50.25;13.25;;;7.60;99.50;;;;;;4948213;28;20078;-88
2021/12/30 03:47:45;;;;;;;49.95;13.48;;;7.50;99.50;;;;;;4962675;28;20085;-88
2021/12/30 03:50:19;;;;;;;60.28;14.57;;;7.40;99.50;;;;;;4945008;29;20502;-88
2021/12/30 03:52:47;;;;;;;69.97;14.23;;;7.40;99.50;;;;;;4963300;28;20090;-88
2021/12/30 03:55:13;;;;;;;55.60;15.23;;;7.30;99.50;;;;;;4948380;28;20376;-88
2021/12/30 03:57:39;;;;;;;63.97;16.23;;;7.30;99.50;;;;;;4943618;28;20398;-87
2021/12/30 04:00:05;;;;;;;60.38;16.17;;;7.20;99.50;;;;;;4950466;28;20078;-87
2021/12/30 04:02:31;;;;;;;65.38;16.15;;;7.10;99.50;;;;;;4965048;28;20035;-87
2021/12/30 04:04:56;;;;;;;54.40;15.48;;;7.20;99.60;;;;;;4960587;28;20039;-88
2021/12/30 04:07:22;;;;;;;58.03;15.85;;;7.10;99.60;;;;;;4964397;28;20046;-87
2021/12/30 04:09:48;;;;;;;77.82;16.73;;;7.00;99.60;;;;;;4966162;28;20038;-88
2021/12/30 04:12:13;;;;;;;70.47;16.60;;;7.10;99.60;;;;;;4947505;28;20031;-88
2021/12/30 04:14:40;;;;;;;57.33;15.60;;;7.00;99.60;;;;;;4954061;28;20039;-88
2021/12/30 04:17:05;;;;;;;67.25;16.67;;;7.00;99.60;;;;;;4969252;28;20114;-88
2021/12/30 04:19:31;;;;;;;70.97;17.60;;;6.90;99.60;;;;;;4963852;28;20126;-88
2021/12/30 04:21:58;;;;;;;73.57;17.75;;;6.90;99.60;;;;;;4952232;29;20061;-88
2021/12/30 04:24:24;;;;;;;96.43;17.90;;;6.90;99.60;;;;;;4952617;28;20091;-88
2021/12/30 04:26:50;;;;;;;77.97;18.20;;;6.90;99.60;;;;;;4953789;29;20031;-88
2021/12/30 04:29:18;;;;;;;95.78;19.98;;;6.90;99.70;;;;;;4968001;28;20033;-88
2021/12/30 04:31:44;;;;;;;95.60;18.25;;;6.90;99.70;;;;;;4952011;29;20034;-88
2021/12/30 04:34:09;;;;;;;85.70;19.75;;;6.80;99.70;;;;;;4946700;28;20090;-88
2021/12/30 04:36:35;;;;;;;85.75;18.42;;;6.90;99.70;;;;;;4953701;29;20027;-88
2021/12/30 04:39:00;;;;;;;82.30;19.02;;;6.90;99.70;;;;;;4953940;28;20031;-88
2021/12/30 04:41:26;;;;;;;90.15;20.08;;;7.10;99.70;;;;;;4963925;28;20551;-88
2021/12/30 04:43:51;;;;;;;104.55;19.35;;;7.10;99.70;;;;;;4967522;28;20043;-88
2021/12/30 04:46:17;;;;;;;94.47;21.35;;;7.10;99.70;;;;;;4968650;28;20031;-88
2021/12/30 04:48:42;;;;;;;96.22;20.83;;;7.20;99.70;;;;;;4948033;28;20027;-88
2021/12/30 04:51:08;;;;;;;90.25;20.27;;;7.20;99.80;;;;;;4962246;28;20451;-88
2021/12/30 04:53:34;;;;;;;97.30;21.02;;;7.20;99.80;;;;;;4942602;29;20479;-88
2021/12/30 04:55:59;;;;;;;85.35;19.38;;;7.30;99.80;;;;;;4960741;28;20558;-88
2021/12/30 04:58:25;;;;;;;88.72;19.85;;;7.30;99.80;;;;;;4967870;28;20027;-88
2021/12/30 05:00:50;;;;;;;98.95;20.25;;;7.30;99.80;;;;;;4969203;28;20038;-88
2021/12/30 05:03:16;;;;;;;78.00;18.92;;;7.40;99.80;;;;;;4967847;28;20032;-88
2021/12/30 05:05:48;;;;;;;92.55;18.60;;;7.40;99.80;;;;;;4950117;28;20102;-88
2021/12/30 05:08:15;;;;;;;90.55;19.52;;;7.40;99.80;;;;;;4966363;28;20030;-88
2021/12/30 05:10:41;;;;;;;83.55;20.17;;;7.60;99.80;;;;;;4954455;28;20031;-88
2021/12/30 05:13:08;;;;;;;91.93;19.60;;;7.50;99.80;;;;;;4951598;28;20044;-88
2021/12/30 05:15:35;;;;;;;79.88;19.42;;;7.50;99.80;;;;;;4961602;28;20031;-88
2021/12/30 05:18:00;;;;;;;77.30;17.63;;;7.60;99.80;;;;;;4951532;28;20043;-88
2021/12/30 05:20:26;;;;;;;75.30;18.20;;;7.60;99.80;;;;;;4967073;28;20085;-86
2021/12/30 05:22:51;;;;;;;78.28;18.45;;;7.60;99.80;;;;;;4949935;28;20028;-86
2021/12/30 05:25:18;;;;;;;67.20;17.77;;;7.60;99.80;;;;;;4946320;29;20019;-87
2021/12/30 05:27:45;;;;;;;75.18;16.77;;;7.60;99.80;;;;;;4966875;28;20455;-87
2021/12/30 05:30:13;;;;;;;88.22;17.50;;;7.70;99.80;;;;;;4962570;28;20047;-87
2021/12/30 05:32:39;;;;;;;68.70;17.60;;;7.60;99.80;;;;;;4952164;28;20030;-86
2021/12/30 05:35:06;;;;;;;70.55;16.48;;;7.70;99.80;;;;;;4963543;28;20035;-86
2021/12/30 05:37:32;;;;;;;64.10;15.52;;;7.60;99.80;;;;;;4952724;29;20096;-86
2021/12/30 05:39:58;;;;;;;66.50;14.70;;;7.60;99.80;;;;;;4949829;29;20062;-86
2021/12/30 05:42:24;;;;;;;67.50;15.05;;;7.70;99.80;;;;;;4949425;29;20026;-86
2021/12/30 05:44:51;;;;;;;82.63;15.48;;;7.70;99.80;;;;;;4968193;28;20452;-86
2021/12/30 05:47:17;;;;;;;67.15;15.23;;;7.70;99.80;;;;;;4949515;29;20102;-86
2021/12/30 05:49:42;;;;;;;75.82;15.30;;;7.70;99.80;;;;;;4961964;28;20027;-87
2021/12/30 05:52:08;;;;;;;76.68;16.42;;;7.70;99.80;;;;;;4949770;29;20038;-87
2021/12/30 05:54:33;;;;;;;76.32;16.88;;;7.80;99.80;;;;;;4963350;28;20031;-86
2021/12/30 05:56:59;;;;;;;77.45;17.05;;;7.80;99.80;;;;;;4949879;29;20027;-87
2021/12/30 05:59:24;;;;;;;73.90;16.55;;;7.80;99.80;;;;;;4964906;28;20058;-87
2021/12/30 06:01:50;;;;;;;71.93;16.20;;;7.90;99.80;;;;;;4950406;28;20031;-86
2021/12/30 06:04:16;;;;;;;80.65;17.38;;;8.00;99.80;;;;;;4963858;28;20027;-86
2021/12/30 06:06:41;;;;;;;66.78;17.85;;;7.90;99.80;;;;;;4952346;28;20031;-86
2021/12/30 06:09:07;;;;;;;78.55;16.83;;;7.90;99.80;;;;;;4966809;28;20028;-86
2021/12/30 06:11:32;;;;;;;76.80;19.60;;;7.90;99.80;;;;;;4963655;28;20561;-87
2021/12/30 06:13:58;;;;;;;76.20;16.95;;;7.90;99.80;;;;;;4949729;28;20023;-87
2021/12/30 06:16:23;;;;;;;83.53;18.60;;;7.90;99.80;;;;;;4960616;28;20035;-87
2021/12/30 06:18:49;;;;;;;83.07;18.67;;;7.90;99.80;;;;;;4948384;28;20543;-86
2021/12/30 06:21:14;;;;;;;72.88;17.73;;;7.90;99.80;;;;;;4948703;28;20047;-87
2021/12/30 06:23:40;;;;;;;81.63;18.73;;;7.90;99.80;;;;;;4966395;28;20049;-87
2021/12/30 06:26:05;;;;;;;85.22;18.58;;;7.90;99.80;;;;;;4962069;28;20024;-87
2021/12/30 06:28:31;;;;;;;80.35;18.13;;;7.90;99.70;;;;;;4953205;28;20030;-86
2021/12/30 06:30:56;;;;;;;90.25;19.13;;;7.90;99.70;;;;;;4948583;28;20542;-87
2021/12/30 06:33:22;;;;;;;76.68;17.23;;;7.90;99.70;;;;;;4959464;28;20476;-87
2021/12/30 06:35:47;;;;;;;87.22;19.17;;;7.90;99.70;;;;;;4965000;28;20058;-87
2021/12/30 06:38:13;;;;;;;77.75;18.10;;;7.80;99.70;;;;;;4965807;28;20033;-86
2021/12/30 06:40:39;;;;;;;69.00;19.90;;;7.80;99.70;;;;;;4965206;28;20027;-85
2021/12/30 06:43:04;;;;;;;83.95;18.23;;;7.80;99.70;;;;;;4952734;28;20358;-86
2021/12/30 06:45:30;;;;;;;85.90;17.92;;;7.90;99.70;;;;;;4964870;28;20510;-86
2021/12/30 06:47:55;;;;;;;70.40;17.08;;;7.90;99.70;;;;;;4970699;28;20039;-88
2021/12/30 06:50:24;;;;;;;72.05;17.83;;;7.90;99.70;;;;;;4962252;28;20031;-88
2021/12/30 06:52:50;;;;;;;79.05;19.40;;;7.90;99.70;;;;;;4944591;28;21127;-88
2021/12/30 06:55:16;;;;;;;62.38;16.98;;;7.80;99.60;;;;;;4948680;28;20027;-88
2021/12/30 06:57:42;;;;;;;71.80;17.17;;;7.90;99.60;;;;;;4958741;28;20039;-88
2021/12/30 07:00:12;;;;;;;76.45;17.83;;;7.80;99.60;;;;;;4958756;28;20024;-88
2021/12/30 07:02:39;;;;;;;77.78;18.52;;;7.90;99.60;;;;;;4931519;28;21252;-88
2021/12/30 07:05:05;;;;;;;77.25;17.60;;;7.90;99.60;;;;;;4944637;29;20023;-88
2021/12/30 07:07:31;;;;;;;71.05;17.50;;;7.90;99.60;;;;;;4964751;28;20501;-88
2021/12/30 07:09:56;;;;;;;72.75;18.02;;;7.90;99.60;;;;;;4947476;29;20031;-88
2021/12/30 07:12:22;;;;;;;67.75;18.45;;;7.90;99.60;;;;;;4964751;28;20372;-87
2021/12/30 07:14:47;;;;;;;79.65;18.65;;;7.90;99.60;;;;;;4966383;28;20364;-88
2021/12/30 07:17:13;;;;;;;64.40;17.38;;;8.00;99.60;;;;;;4966640;28;20029;-88
2021/12/30 07:19:39;;;;;;;79.15;19.10;;;8.00;99.60;;;;;;4961645;28;20023;-88
2021/12/30 07:22:04;;;;;;;70.65;18.02;;;8.00;99.60;;;;;;4950746;28;20031;-88
2021/12/30 07:24:32;;;;;;;70.75;17.48;;;8.00;99.60;;;;;;4965415;28;20483;-88
2021/12/30 07:26:58;;;;;;;79.28;18.48;;;8.00;99.60;;;;;;4965919;28;20082;-88
2021/12/30 07:29:24;;;;;;;82.22;18.15;;;8.00;99.60;;;;;;4957529;28;20063;-88
2021/12/30 07:31:49;;;;;;;74.38;18.17;;;8.00;99.60;;;;;;4942046;29;20061;-88
2021/12/30 07:34:15;;;;;;;76.38;17.90;;;8.00;99.60;;;;;;4960715;28;20327;-88
2021/12/30 07:36:41;;;;;;;68.97;18.02;;;8.10;99.60;;;;;;4949233;29;20479;-88
2021/12/30 07:39:07;;;;;;;79.40;18.73;;;8.10;99.60;;;;;;4961769;28;20073;-88
2021/12/30 07:41:33;;;;;;;68.63;18.52;;;8.10;99.60;;;;;;4949072;29;20050;-88
2021/12/30 07:43:58;;;;;;;66.53;17.42;;;8.10;99.60;;;;;;4945186;28;20038;-88
2021/12/30 07:46:24;;;;;;;75.50;18.10;;;8.20;99.60;;;;;;4945700;29;20031;-88
2021/12/30 07:48:49;;;;;;;75.47;17.85;;;8.10;99.60;;;;;;4960053;28;20725;-87
2021/12/30 07:51:15;;;;;;;93.07;19.42;;;8.20;99.60;;;;;;4949506;29;20035;-87
2021/12/30 07:53:40;;;;;;;82.05;18.73;;;8.20;99.60;;;;;;4947000;28;20122;-85
2021/12/30 07:56:09;;;;;;;84.13;18.20;;;8.20;99.60;;;;;;4947591;29;20042;-86
2021/12/30 07:58:35;;;;;;;67.45;19.67;;;8.30;99.60;;;;;;4957661;28;20030;-86
2021/12/30 08:01:01;;;;;;;88.93;19.27;;;8.30;99.60;;;;;;4945993;28;20043;-86
2021/12/30 08:03:27;;;;;;;81.00;19.08;;;8.40;99.60;;;;;;4962850;28;20031;-85
2021/12/30 08:05:52;;;;;;;83.03;20.00;;;8.40;99.60;;;;;;4946784;28;20575;-85
2021/12/30 08:08:18;;;;;;;74.82;18.83;;;8.40;99.60;;;;;;4964628;28;20387;-86
2021/12/30 08:10:44;;;;;;;70.68;18.45;;;8.50;99.60;;;;;;4943288;28;20411;-86
2021/12/30 08:13:10;;;;;;;80.03;19.38;;;8.40;99.60;;;;;;4944849;28;20399;-85
2021/12/30 08:15:36;;;;;;;71.28;18.67;;;8.50;99.60;;;;;;4960962;28;20081;-85
2021/12/30 08:18:02;;;;;;;79.10;17.38;;;8.40;99.60;;;;;;4962610;28;20467;-86
2021/12/30 08:20:27;;;;;;;76.45;18.13;;;8.40;99.60;;;;;;4945410;28;20031;-85
2021/12/30 08:22:53;;;;;;;69.90;17.98;;;8.40;99.60;;;;;;4946364;28;20027;-85
2021/12/30 08:25:20;;;;;;;84.88;19.92;;;8.40;99.60;;;;;;4956671;28;20028;-85
2021/12/30 08:27:46;;;;;;;69.35;17.83;;;8.40;99.60;;;;;;4964522;28;20034;-86
2021/12/30 08:30:15;;;;;;;66.72;18.13;;;8.40;99.60;;;;;;4961594;28;20032;-85
2021/12/30 08:32:42;;;;;;;83.90;18.63;;;8.40;99.60;;;;;;4963186;28;20455;-85
2021/12/30 08:35:08;;;;;;;92.68;18.63;;;8.50;99.60;;;;;;4961402;28;20506;-85
2021/12/30 08:37:34;;;;;;;66.90;18.23;;;8.50;99.60;;;;;;4946149;28;20034;-85
2021/12/30 08:40:04;;;;;;;86.03;19.63;;;8.60;99.60;;;;;;4946597;29;20478;-85
2021/12/30 08:42:30;;;;;;;81.38;18.42;;;8.60;99.60;;;;;;4959705;28;20083;-85
2021/12/30 08:44:58;;;;;;;70.05;17.70;;;8.60;99.60;;;;;;4948238;28;20051;-85
2021/12/30 08:47:24;;;;;;;66.95;17.20;;;8.60;99.60;;;;;;4954320;28;20036;-85
2021/12/30 08:49:50;;;;;;;74.38;17.98;;;8.60;99.60;;;;;;4960443;28;20031;-85
2021/12/30 08:52:18;;;;;;;59.28;18.05;;;8.70;99.60;;;;;;4949311;29;20039;-85
2021/12/30 08:54:47;;;;;;;73.43;18.13;;;8.70;99.60;;;;;;4956692;28;20027;-85
2021/12/30 08:57:13;;;;;;;71.75;17.65;;;8.70;99.60;;;;;;4943034;29;20082;-86
2021/12/30 08:59:39;;;;;;;71.50;16.67;;;8.80;99.60;;;;;;4949937;29;20024;-86
2021/12/30 09:02:06;;;;;;;72.18;17.23;;;8.70;99.60;;;;;;4954256;28;20078;-86
2021/12/30 09:04:32;;;;;;;75.65;17.13;;;8.80;99.60;;;;;;4952469;28;20467;-87
2021/12/30 09:06:58;;;;;;;79.88;18.20;;;8.80;99.60;;;;;;4949489;28;20043;-86
2021/12/30 09:09:25;;;;;;;72.45;16.52;;;8.80;99.60;;;;;;4952739;29;20473;-87
2021/12/30 09:11:53;;;;;;;89.45;18.40;;;8.80;99.60;;;;;;4943068;29;20395;-86
2021/12/30 09:14:19;;;;;;;81.47;17.75;;;8.80;99.60;;;;;;4950010;29;20039;-87
2021/12/30 09:16:45;;;;;;;75.25;18.50;;;8.90;99.60;;;;;;4962724;28;20038;-86
2021/12/30 09:19:11;;;;;;;94.97;19.02;;;8.90;99.60;;;;;;4945771;28;20031;-86
2021/12/30 09:21:40;;;;;;;85.22;18.63;;;9.00;99.60;;;;;;4954554;28;20082;-86
2021/12/30 09:24:08;;;;;;;88.50;17.77;;;9.00;99.70;;;;;;4962574;28;20400;-86
2021/12/30 09:26:33;;;;;;;82.10;17.45;;;9.00;99.70;;;;;;4950625;29;20023;-86
2021/12/30 09:28:59;;;;;;;85.20;18.42;;;9.00;99.60;;;;;;4948284;28;20050;-86
2021/12/30 09:31:24;;;;;;;96.25;17.67;;;9.00;99.70;;;;;;4963668;28;20034;-86
2021/12/30 09:33:50;;;;;;;85.50;18.58;;;9.00;99.70;;;;;;4949280;29;20035;-86
2021/12/30 09:36:16;;;;;;;77.72;17.10;;;9.10;99.70;;;;;;4969644;28;20035;-86
2021/12/30 09:38:41;;;;;;;94.57;19.05;;;9.10;99.70;;;;;;4964051;28;20028;-85
2021/12/30 09:41:07;;;;;;;74.72;16.80;;;9.10;99.70;;;;;;4952795;28;20128;-86
2021/12/30 09:43:34;;;;;;;76.50;18.48;;;9.20;99.70;;;;;;4944874;28;20031;-86
2021/12/30 09:46:00;;;;;;;78.55;17.55;;;9.30;99.70;;;;;;4960843;28;20030;-86
2021/12/30 09:48:28;;;;;;;73.80;16.95;;;9.30;99.70;;;;;;4948895;28;20450;-86
2021/12/30 09:50:55;;;;;;;79.93;16.58;;;9.40;99.70;;;;;;4936020;29;20028;-87
2021/12/30 09:53:23;;;;;;;60.42;16.42;;;9.40;99.70;;;;;;4965838;28;20460;-87
2021/12/30 09:55:51;;;;;;;70.93;15.93;;;9.50;99.70;;;;;;4962953;28;20028;-87
2021/12/30 09:58:18;;;;;;;58.00;16.48;;;9.60;99.80;;;;;;4951676;28;20027;-87
2021/12/30 10:00:44;;;;;;;68.13;16.25;;;9.60;99.70;;;;;;4965185;28;20424;-88
2021/12/30 10:03:10;;;;;;;65.20;17.77;;;9.60;99.80;;;;;;4957359;28;20051;-87
2021/12/30 10:05:39;;;;;;;65.13;17.30;;;9.70;99.80;;;;;;4938873;29;20062;-88
2021/12/30 10:08:25;;;;;;;68.82;16.50;;;9.70;99.80;;;;;;4946056;28;20131;-87
2021/12/30 10:10:57;;;;;;;60.60;15.85;;;9.80;99.80;;;;;;4950810;28;20058;-87
2021/12/30 10:13:29;;;;;;;53.85;15.48;;;9.90;99.80;;;;;;4953647;29;20395;-87
2021/12/30 10:16:00;;;;;;;56.78;16.60;;;9.90;99.80;;;;;;4947394;28;20038;-87
2021/12/30 10:18:45;;;;;;;69.05;16.65;;;10.00;99.80;;;;;;4960931;28;20027;-88
2021/12/30 10:21:13;;;;;;;56.25;15.52;;;10.00;99.80;;;;;;4944987;28;20035;-87
2021/12/30 10:23:44;;;;;;;44.47;14.02;;;10.00;99.80;;;;;;4949561;28;21246;-87
2021/12/30 10:26:09;;;;;;;44.83;14.70;;;10.10;99.80;;;;;;4948396;28;20031;-87
2021/12/30 10:28:36;;;;;;;51.42;13.50;;;10.10;99.80;;;;;;4949671;28;20120;-87
2021/12/30 10:31:11;;;;;;;44.22;12.90;;;10.10;99.80;;;;;;4951610;28;20418;-87
2021/12/30 10:33:57;;;;;;;48.25;13.25;;;10.10;99.80;;;;;;4945636;28;20050;-87
2021/12/30 10:36:29;;;;;;;41.88;13.27;;;10.20;99.80;;;;;;4949107;29;20166;-87
2021/12/30 10:39:12;;;;;;;37.20;12.63;;;10.20;99.80;;;;;;4963183;28;20023;-87
2021/12/30 10:41:38;;;;;;;38.22;12.73;;;10.30;99.80;;;;;;4942707;28;20024;-88
2021/12/30 10:44:05;;;;;;;44.85;12.45;;;10.30;99.80;;;;;;4963009;28;20510;-88
2021/12/30 10:46:31;;;;;;;41.90;12.23;;;10.30;99.80;;;;;;4963514;28;20031;-87
2021/12/30 10:48:59;;;;;;;37.38;12.68;;;10.30;99.80;;;;;;4948517;28;20522;-87
2021/12/30 10:51:48;;;;;;;40.17;11.85;;;10.40;99.80;;;;;;4948947;29;20053;-88
2021/12/30 10:54:22;;;;;;;33.30;10.93;;;10.40;99.80;;;;;;4951125;29;20143;-88
2021/12/30 10:56:50;;;;;;;36.60;11.13;;;10.50;99.80;;;;;;4965131;28;20034;-88
2021/12/30 10:59:23;;;;;;;33.67;11.07;;;10.50;99.80;;;;;;4962853;28;20042;-88
2021/12/30 11:01:51;;;;;;;29.40;10.80;;;10.60;99.80;;;;;;4946681;29;20392;-88
2021/12/30 11:04:20;;;;;;;38.00;10.75;;;10.60;99.80;;;;;;4942326;29;20059;-88
2021/12/30 11:06:46;;;;;;;28.60;9.68;;;10.60;99.80;;;;;;4962133;28;20479;-87
2021/12/30 11:09:21;;;;;;;25.98;9.00;;;10.60;99.80;;;;;;4949374;28;20031;-87
2021/12/30 11:11:52;;;;;;;27.42;9.05;;;10.70;99.80;;;;;;4949797;28;20035;-87
2021/12/30 11:14:24;;;;;;;22.15;8.15;;;10.80;99.80;;;;;;4966360;28;20027;-88
2021/12/30 11:17:16;;;;;;;21.73;8.30;;;10.80;99.80;;;;;;4944093;28;20027;-88
2021/12/30 11:19:49;;;;;;;23.55;8.38;;;10.80;99.80;;;;;;4961546;28;20078;-88
2021/12/30 11:22:21;;;;;;;22.17;7.40;;;10.80;99.80;;;;;;4947638;29;20023;-89
2021/12/30 11:24:49;;;;;;;19.20;6.70;;;10.80;99.80;;;;;;4946828;28;20129;-89
2021/12/30 11:27:16;;;;;;;15.45;5.78;;;10.80;99.80;;;;;;4947685;29;20515;-89
2021/12/30 11:29:45;;;;;;;16.48;6.13;;;10.90;99.80;;;;;;4943688;29;20023;-89
2021/12/30 11:32:17;;;;;;;14.55;5.10;;;10.90;99.80;;;;;;4945938;28;20032;-88
2021/12/30 11:34:46;;;;;;;12.52;4.93;;;11.00;99.80;;;;;;4964619;28;20077;-89
2021/12/30 11:37:14;;;;;;;12.10;4.57;;;11.00;99.80;;;;;;4944800;28;20118;-89
2021/12/30 11:39:43;;;;;;;10.40;4.25;;;11.00;99.80;;;;;;4950460;28;20170;-89
2021/12/30 11:42:15;;;;;;;11.55;4.28;;;11.00;99.80;;;;;;4950773;29;20706;-89
2021/12/30 11:44:47;;;;;;;9.57;3.28;;;11.10;99.80;;;;;;4947042;28;20031;-89
2021/12/30 11:47:31;;;;;;;7.97;2.95;;;11.10;99.80;;;;;;4947535;29;20047;-88
2021/12/30 11:50:02;;;;;;;8.65;3.20;;;11.10;99.70;;;;;;4958813;28;20063;-88
2021/12/30 11:52:45;;;;;;;6.47;3.05;;;11.10;99.70;;;;;;4949545;28;20034;-88
2021/12/30 11:55:39;;;;;;;6.78;2.70;;;11.20;99.70;;;;;;4950156;28;20117;-88
2021/12/30 11:58:43;;;;;;;7.65;2.90;;;11.20;99.70;;;;;;4948877;29;20031;-88
2021/12/30 12:01:14;;;;;;;8.10;2.90;;;11.30;99.70;;;;;;4945564;29;20106;-88
2021/12/30 12:04:02;;;;;;;6.20;2.75;;;11.30;99.70;;;;;;4946657;29;20034;-88
2021/12/30 12:06:33;;;;;;;5.35;2.70;;;11.40;99.70;;;;;;4952718;28;20169;-88
2021/12/30 12:09:03;;;;;;;7.47;2.95;;;11.30;99.70;;;;;;4947202;29;20036;-88
2021/12/30 12:11:48;;;;;;;7.32;2.97;;;11.30;99.70;;;;;;4947165;28;20034;-88
2021/12/30 12:14:26;;;;;;;7.25;3.50;;;11.40;99.70;;;;;;4949507;29;20484;-89
2021/12/30 12:16:59;;;;;;;6.05;2.90;;;11.40;99.60;;;;;;4946345;29;20098;-88
2021/12/30 12:19:34;;;;;;;4.78;2.70;;;11.40;99.60;;;;;;4943889;28;20495;-88
2021/12/30 12:22:01;;;;;;;10.45;4.65;;;11.50;99.60;;;;;;4944470;29;20423;-88
2021/12/30 12:24:36;;;;;;;6.18;3.10;;;11.40;99.60;;;;;;4951140;29;20027;-88
2021/12/30 12:27:06;;;;;;;5.53;3.25;;;11.50;99.60;;;;;;4951423;28;20035;-88
2021/12/30 12:29:45;;;;;;;6.82;3.33;;;11.50;99.60;;;;;;4950474;28;20082;-89
2021/12/30 12:32:16;;;;;;;5.70;3.25;;;11.50;99.60;;;;;;4949416;28;20392;-88
2021/12/30 12:34:51;;;;;;;7.35;3.20;;;11.50;99.60;;;;;;4948632;29;20051;-89
2021/12/30 12:37:37;;;;;;;5.93;3.10;;;11.60;99.60;;;;;;4963400;28;20032;-88
2021/12/30 12:40:24;;;;;;;6.95;2.78;;;11.60;99.60;;;;;;4953399;28;20051;-88